Time;durP1;ratioP1;P1;durP2;ratioP2;P2;SDS_P1;SDS_P2;PMS_P1;PMS_P2;Temp;Humidity;BMP_temperature;BMP_pressure;BME280_temperature;BME280_humidity;BME280_pressure;Samples;Min_cycle;Max_cycle;Signal;HPM_P1;HPM_P2
2023/03/26 00:01:45;;;;;;;3.63;1.70;;;9.80;51.80;;;;;;4739483;29;115401;-83
2023/03/26 00:04:12;;;;;;;3.45;1.60;;;9.70;52.00;;;;;;4711061;29;116976;-83
2023/03/26 00:06:40;;;;;;;3.45;1.50;;;9.70;52.10;;;;;;4722468;29;116075;-83
2023/03/26 00:09:09;;;;;;;3.22;1.40;;;9.70;52.10;;;;;;4738964;29;117189;-83
2023/03/26 00:11:37;;;;;;;3.40;1.40;;;9.70;52.10;;;;;;4739011;29;115394;-84
2023/03/26 00:14:04;;;;;;;3.25;1.40;;;9.70;52.10;;;;;;4734457;29;114893;-84
2023/03/26 00:16:32;;;;;;;3.47;1.40;;;9.70;52.00;;;;;;4720866;29;116223;-84
2023/03/26 00:19:00;;;;;;;3.90;1.50;;;9.70;52.00;;;;;;4721344;29;114700;-84
2023/03/26 00:21:29;;;;;;;4.28;1.70;;;9.70;52.20;;;;;;4719985;29;115444;-83
2023/03/26 00:24:03;;;;;;;4.28;1.50;;;9.70;52.00;;;;;;4690921;29;114950;-84
2023/03/26 00:26:32;;;;;;;;;;;9.70;52.10;;;;;;4733162;29;114821;-84
2023/03/26 00:29:02;;;;;;;3.30;1.40;;;9.60;51.70;;;;;;4738843;29;114919;-84
2023/03/26 00:31:29;;;;;;;2.85;1.40;;;9.60;52.40;;;;;;4739225;29;115200;-83
2023/03/26 00:33:56;;;;;;;3.67;1.48;;;9.60;52.40;;;;;;4738213;29;117980;-84
2023/03/26 00:36:25;;;;;;;4.07;1.60;;;9.50;52.40;;;;;;4739235;29;115567;-85
2023/03/26 00:38:54;;;;;;;4.40;2.08;;;9.60;52.50;;;;;;4725388;29;114678;-85
2023/03/26 00:41:29;;;;;;;4.15;1.50;;;9.50;52.50;;;;;;4727229;29;115311;-85
2023/03/26 00:43:59;;;;;;;3.03;1.30;;;9.50;52.60;;;;;;4730634;29;114775;-84
2023/03/26 00:46:28;;;;;;;3.95;1.63;;;9.60;52.70;;;;;;4722249;29;114628;-83
2023/03/26 00:48:59;;;;;;;3.80;1.45;;;9.50;52.70;;;;;;4707120;29;115051;-83
2023/03/26 00:51:27;;;;;;;3.90;1.35;;;9.60;52.70;;;;;;4701034;29;115282;-84
2023/03/26 00:53:55;;;;;;;3.60;1.55;;;9.60;52.80;;;;;;4738315;29;118004;-83
2023/03/26 00:56:23;;;;;;;3.25;1.30;;;9.60;52.60;;;;;;4739068;29;114634;-84
2023/03/26 00:58:50;;;;;;;2.50;1.38;;;9.50;52.60;;;;;;4708705;29;114653;-82
2023/03/26 01:01:26;;;;;;;2.45;1.27;;;9.50;52.70;;;;;;4722916;29;115844;-83
2023/03/26 01:04:22;;;;;;;3.97;1.40;;;9.50;52.70;;;;;;4692714;29;115628;-83
2023/03/26 01:06:50;;;;;;;3.30;1.60;;;9.50;52.70;;;;;;4708834;29;114463;-84
2023/03/26 01:09:19;;;;;;;3.42;1.48;;;9.40;52.80;;;;;;4689622;29;114889;-84
2023/03/26 01:11:47;;;;;;;3.50;1.20;;;9.40;52.90;;;;;;4692171;29;117691;-84
2023/03/26 01:14:22;;;;;;;3.45;1.50;;;9.40;53.00;;;;;;4692811;29;116145;-84
2023/03/26 01:16:56;;;;;;;3.28;1.20;;;9.40;52.90;;;;;;4731401;29;117437;-84
2023/03/26 01:19:44;;;;;;;3.65;1.38;;;9.40;53.00;;;;;;4704731;29;115114;-84
2023/03/26 01:22:23;;;;;;;3.40;1.38;;;9.50;52.80;;;;;;4718701;29;115444;-84
2023/03/26 01:24:55;;;;;;;4.45;1.48;;;9.40;52.90;;;;;;4704671;29;114921;-85
2023/03/26 01:27:45;;;;;;;3.20;1.30;;;9.40;52.90;;;;;;4691845;29;115738;-83
2023/03/26 01:30:36;;;;;;;5.47;1.60;;;9.50;52.60;;;;;;4713072;29;117834;-84
2023/03/26 01:33:37;;;;;;;3.35;1.20;;;9.40;52.80;;;;;;4719978;29;115466;-83
2023/03/26 01:36:22;;;;;;;2.95;1.40;;;9.40;52.90;;;;;;4705141;29;115747;-83
2023/03/26 01:38:58;;;;;;;3.47;1.30;;;9.40;52.80;;;;;;4708963;29;114779;-83
2023/03/26 01:41:41;;;;;;;3.53;1.80;;;9.30;53.00;;;;;;4738375;29;115792;-83
2023/03/26 01:44:34;;;;;;;3.72;1.35;;;9.30;53.30;;;;;;4737768;29;117750;-83
2023/03/26 01:47:02;;;;;;;4.13;1.27;;;9.40;53.00;;;;;;4720157;29;114941;-83
2023/03/26 01:49:32;;;;;;;2.97;1.13;;;9.30;52.90;;;;;;4698185;29;115621;-83
2023/03/26 01:52:01;;;;;;;4.00;1.50;;;9.40;52.70;;;;;;4706214;29;114942;-83
2023/03/26 01:54:29;;;;;;;4.32;1.63;;;9.30;52.80;;;;;;4705837;29;115294;-83
2023/03/26 01:56:59;;;;;;;6.13;1.60;;;9.40;52.80;;;;;;4705671;29;115081;-83
2023/03/26 01:59:45;;;;;;;4.20;1.30;;;9.40;52.80;;;;;;4721728;29;114848;-84
2023/03/26 02:02:29;;;;;;;3.10;1.20;;;9.40;52.80;;;;;;4720411;29;114694;-83
2023/03/26 02:05:04;;;;;;;5.20;1.60;;;9.40;52.80;;;;;;4716955;29;115778;-83
2023/03/26 02:07:46;;;;;;;3.72;1.50;;;9.40;52.70;;;;;;4703819;29;116779;-84
2023/03/26 02:10:25;;;;;;;3.90;1.35;;;9.40;52.90;;;;;;4707541;29;115546;-83
2023/03/26 02:12:53;;;;;;;4.55;1.38;;;9.30;52.60;;;;;;4704002;29;114577;-83
2023/03/26 02:15:20;;;;;;;4.18;1.30;;;9.20;52.70;;;;;;4690198;29;118528;-83
2023/03/26 02:17:48;;;;;;;3.15;1.30;;;9.20;52.70;;;;;;4719506;29;114852;-85
2023/03/26 02:20:17;;;;;;;3.58;1.30;;;9.20;52.70;;;;;;4690916;29;114606;-84
2023/03/26 02:22:46;;;;;;;4.88;1.38;;;9.20;52.70;;;;;;4705929;29;114601;-85
2023/03/26 02:25:18;;;;;;;3.53;1.20;;;9.20;52.70;;;;;;4704741;29;115214;-84
2023/03/26 02:27:48;;;;;;;2.53;1.33;;;9.20;52.80;;;;;;4692194;29;115115;-84
2023/03/26 02:30:25;;;;;;;3.35;1.10;;;9.20;52.80;;;;;;4736479;29;114886;-84
2023/03/26 02:32:57;;;;;;;4.57;1.30;;;9.20;52.90;;;;;;4723061;29;114619;-84
2023/03/26 02:35:31;;;;;;;4.95;1.50;;;9.20;52.90;;;;;;4713222;29;117838;-84
2023/03/26 02:38:00;;;;;;;3.63;1.40;;;9.20;53.00;;;;;;4719811;29;114691;-83
2023/03/26 02:40:28;;;;;;;2.60;1.23;;;9.10;53.00;;;;;;4708139;29;117214;-83
2023/03/26 02:42:57;;;;;;;4.28;1.40;;;9.20;53.10;;;;;;4723138;29;114757;-84
2023/03/26 02:45:26;;;;;;;3.80;1.20;;;9.20;53.10;;;;;;4736956;29;115096;-82
2023/03/26 02:48:13;;;;;;;3.95;1.27;;;9.20;53.00;;;;;;4738478;29;115161;-83
2023/03/26 02:50:48;;;;;;;3.08;1.58;;;9.20;53.10;;;;;;4709617;29;114633;-83
2023/03/26 02:53:36;;;;;;;3.33;1.15;;;9.30;53.20;;;;;;4738341;29;117217;-83
2023/03/26 02:56:46;;;;;;;4.68;1.10;;;9.20;53.20;;;;;;4721391;29;115374;-84
2023/03/26 02:59:38;;;;;;;3.22;1.30;;;9.30;53.50;;;;;;4723092;29;115336;-82
2023/03/26 03:02:28;;;;;;;4.25;1.13;;;9.20;53.90;;;;;;4720757;29;114885;-83
2023/03/26 03:05:04;;;;;;;4.97;1.30;;;9.20;54.00;;;;;;4692417;29;115033;-83
2023/03/26 03:07:37;;;;;;;2.95;1.15;;;9.20;53.90;;;;;;4704599;29;117459;-83
2023/03/26 03:10:07;;;;;;;3.10;1.10;;;9.20;53.90;;;;;;4690250;29;115222;-83
2023/03/26 03:13:00;;;;;;;3.38;1.05;;;9.20;53.70;;;;;;4697631;29;114690;-83
2023/03/26 03:15:28;;;;;;;5.93;1.60;;;9.20;53.90;;;;;;4720428;29;116387;-83
2023/03/26 03:17:55;;;;;;;3.50;1.10;;;9.20;53.80;;;;;;4720345;29;115334;-84
2023/03/26 03:20:26;;;;;;;4.28;1.35;;;9.20;53.80;;;;;;4734459;29;114862;-84
2023/03/26 03:22:54;;;;;;;3.95;1.20;;;9.20;53.90;;;;;;4719951;29;114603;-84
2023/03/26 03:25:22;;;;;;;3.60;1.10;;;9.20;53.80;;;;;;4702988;29;114531;-84
2023/03/26 03:27:49;;;;;;;3.65;1.65;;;9.20;53.70;;;;;;4714968;29;115327;-84
2023/03/26 03:30:17;;;;;;;5.80;1.60;;;9.10;53.60;;;;;;4721012;29;115081;-85
2023/03/26 03:32:44;;;;;;;3.95;1.30;;;9.20;53.80;;;;;;4743557;29;114766;-84
2023/03/26 03:35:13;;;;;;;3.08;1.13;;;9.20;53.80;;;;;;4727585;29;114652;-84
2023/03/26 03:37:44;;;;;;;2.35;1.10;;;9.20;53.80;;;;;;4740441;29;116017;-84
2023/03/26 03:40:12;;;;;;;4.93;1.40;;;9.20;53.60;;;;;;4726140;29;114839;-83
2023/03/26 03:42:40;;;;;;;3.78;1.40;;;9.10;53.70;;;;;;4727377;29;114584;-83
2023/03/26 03:45:09;;;;;;;7.30;1.80;;;9.10;53.90;;;;;;4725927;29;114724;-82
2023/03/26 03:47:56;;;;;;;4.50;1.63;;;9.10;53.60;;;;;;4740666;29;115537;-82
2023/03/26 03:50:34;;;;;;;5.82;2.08;;;9.00;53.60;;;;;;4739365;29;114764;-84
2023/03/26 03:53:25;;;;;;;4.75;1.88;;;9.00;53.70;;;;;;4713291;29;114551;-84
2023/03/26 03:55:54;;;;;;;4.03;1.40;;;9.00;53.70;;;;;;4740887;29;114636;-84
2023/03/26 03:58:27;;;;;;;3.53;1.20;;;9.00;53.70;;;;;;4724583;29;120001;-84
2023/03/26 04:01:03;;;;;;;3.40;1.30;;;9.00;53.60;;;;;;4709907;29;117497;-83
2023/03/26 04:03:47;;;;;;;4.85;1.48;;;9.00;53.60;;;;;;4740347;29;114684;-83
2023/03/26 04:06:17;;;;;;;2.70;1.20;;;9.00;53.80;;;;;;4725669;29;114621;-83
2023/03/26 04:08:52;;;;;;;3.38;1.10;;;9.00;53.70;;;;;;4706759;29;115162;-83
2023/03/26 04:11:20;;;;;;;4.75;1.13;;;9.00;53.50;;;;;;4707263;29;114797;-83
2023/03/26 04:14:10;;;;;;;3.28;1.23;;;9.00;53.60;;;;;;4718822;29;114567;-82
2023/03/26 04:16:57;;;;;;;2.47;1.00;;;9.10;53.50;;;;;;4724649;29;114650;-83
2023/03/26 04:19:26;;;;;;;3.50;1.20;;;9.00;53.50;;;;;;4723135;29;115024;-84
2023/03/26 04:22:01;;;;;;;6.10;2.10;;;9.00;53.50;;;;;;4721432;29;115116;-83
2023/03/26 04:24:44;;;;;;;3.25;1.38;;;9.10;53.50;;;;;;4712122;29;114852;-84
2023/03/26 04:27:35;;;;;;;4.72;1.40;;;9.10;53.40;;;;;;4721668;29;114583;-84
2023/03/26 04:30:17;;;;;;;3.08;1.00;;;9.10;53.30;;;;;;4722705;29;115350;-84
2023/03/26 04:32:46;;;;;;;4.28;1.20;;;9.10;53.30;;;;;;4718954;29;115514;-83
2023/03/26 04:35:15;;;;;;;4.85;1.48;;;9.10;53.20;;;;;;4728797;29;114894;-84
2023/03/26 04:37:47;;;;;;;5.40;1.20;;;9.10;53.10;;;;;;4721406;29;114544;-84
2023/03/26 04:40:21;;;;;;;;;;;9.10;53.20;;;;;;4692486;29;116548;-83
2023/03/26 04:42:58;;;;;;;3.17;1.13;;;9.00;53.00;;;;;;4737750;29;114819;-83
2023/03/26 04:45:48;;;;;;;3.08;1.08;;;8.90;53.10;;;;;;4725540;29;115136;-83
2023/03/26 04:48:19;;;;;;;3.92;0.90;;;8.90;53.30;;;;;;4723058;29;114550;-83
2023/03/26 04:50:47;;;;;;;3.53;1.25;;;8.90;53.30;;;;;;4723838;29;115911;-84
2023/03/26 04:53:17;;;;;;;2.53;1.10;;;8.90;53.30;;;;;;4723298;29;116644;-83
2023/03/26 04:56:20;;;;;;;3.92;1.33;;;8.90;53.30;;;;;;4727636;29;114742;-83
2023/03/26 04:59:25;;;;;;;3.40;1.48;;;8.90;53.40;;;;;;4739564;29;114602;-84
2023/03/26 05:01:55;;;;;;;3.38;1.40;;;8.90;53.30;;;;;;4723106;29;116840;-83
2023/03/26 05:04:25;;;;;;;3.95;1.08;;;9.00;53.30;;;;;;4708900;29;114756;-83
2023/03/26 05:06:53;;;;;;;3.60;1.15;;;9.00;53.20;;;;;;4738313;29;114648;-84
2023/03/26 05:09:35;;;;;;;6.07;1.38;;;9.00;53.20;;;;;;4725734;29;114915;-84
2023/03/26 05:12:16;;;;;;;4.32;1.13;;;9.00;53.20;;;;;;4727083;29;115311;-84
2023/03/26 05:14:53;;;;;;;3.20;1.02;;;9.10;53.20;;;;;;4712898;29;114946;-84
2023/03/26 05:17:41;;;;;;;3.75;1.30;;;9.10;53.10;;;;;;4696115;29;115032;-84
2023/03/26 05:20:21;;;;;;;4.18;1.30;;;9.20;53.00;;;;;;4720720;29;118815;-84
2023/03/26 05:22:48;;;;;;;2.90;1.50;;;9.10;52.80;;;;;;4700394;29;116707;-84
2023/03/26 05:25:22;;;;;;;;;;;9.20;52.60;;;;;;4732521;29;114959;-84
2023/03/26 05:27:50;;;;;;;5.68;1.30;;;9.10;52.60;;;;;;4737709;29;114565;-85
2023/03/26 05:30:20;;;;;;;5.40;1.33;;;9.00;52.90;;;;;;4735084;29;114917;-84
2023/03/26 05:32:52;;;;;;;5.13;1.40;;;9.10;53.00;;;;;;4715834;29;115208;-84
2023/03/26 05:35:24;;;;;;;4.72;1.35;;;9.10;52.90;;;;;;4735670;29;114969;-84
2023/03/26 05:37:52;;;;;;;4.28;1.30;;;9.20;52.80;;;;;;4710543;29;115136;-84
2023/03/26 05:40:22;;;;;;;3.90;1.50;;;9.20;52.60;;;;;;4720952;29;114857;-84
2023/03/26 05:43:04;;;;;;;2.95;1.10;;;9.20;52.70;;;;;;4711006;29;117983;-84
2023/03/26 05:45:55;;;;;;;2.83;1.00;;;9.20;52.60;;;;;;4709720;29;117351;-84
2023/03/26 05:48:30;;;;;;;3.83;1.20;;;9.20;52.60;;;;;;4719547;29;114833;-84
2023/03/26 05:50:58;;;;;;;4.28;1.20;;;9.20;52.70;;;;;;4701155;29;114659;-84
2023/03/26 05:53:28;;;;;;;4.47;1.15;;;9.20;52.70;;;;;;4707228;29;118198;-84
2023/03/26 05:56:10;;;;;;;3.15;1.08;;;9.20;52.60;;;;;;4723414;29;114953;-83
2023/03/26 05:58:56;;;;;;;3.50;1.17;;;9.20;52.60;;;;;;4725217;29;114720;-83
2023/03/26 06:01:46;;;;;;;5.40;1.33;;;9.20;52.70;;;;;;4727739;29;114800;-83
2023/03/26 06:04:45;;;;;;;5.07;1.25;;;9.30;52.60;;;;;;4727823;29;118711;-84
2023/03/26 06:07:32;;;;;;;4.28;1.40;;;9.20;52.60;;;;;;4735318;29;114824;-84
2023/03/26 06:10:13;;;;;;;5.63;1.60;;;9.20;52.50;;;;;;4720920;29;114882;-82
2023/03/26 06:12:45;;;;;;;2.97;1.13;;;9.30;52.60;;;;;;4721638;29;114774;-83
2023/03/26 06:15:12;;;;;;;4.97;1.52;;;9.20;52.80;;;;;;4722604;29;117622;-81
2023/03/26 06:17:57;;;;;;;2.80;1.05;;;9.30;52.80;;;;;;4722776;29;115357;-84
2023/03/26 06:21:01;;;;;;;4.75;1.35;;;9.30;52.60;;;;;;4719579;29;114817;-83
2023/03/26 06:23:52;;;;;;;3.80;1.40;;;9.30;52.60;;;;;;4733412;29;114962;-83
2023/03/26 06:26:34;;;;;;;6.10;2.03;;;9.40;52.50;;;;;;4721855;29;118686;-82
2023/03/26 06:29:21;;;;;;;3.72;1.63;;;9.40;52.50;;;;;;4722794;29;115792;-83
2023/03/26 06:32:15;;;;;;;5.13;1.40;;;9.40;52.70;;;;;;4719527;29;115293;-85
2023/03/26 06:35:12;;;;;;;3.63;1.70;;;9.30;52.50;;;;;;4718923;29;114504;-86
2023/03/26 06:37:41;;;;;;;2.63;0.90;;;9.40;52.50;;;;;;4704588;29;115398;-86
2023/03/26 06:40:09;;;;;;;2.80;1.17;;;9.40;52.80;;;;;;4719041;29;114794;-85
2023/03/26 06:42:56;;;;;;;4.00;1.10;;;9.40;52.80;;;;;;4720494;29;114748;-84
2023/03/26 06:45:53;;;;;;;5.15;1.50;;;9.50;52.50;;;;;;4723256;29;115087;-84
2023/03/26 06:48:39;;;;;;;3.83;1.35;;;9.60;52.70;;;;;;4720375;29;115249;-84
2023/03/26 06:51:24;;;;;;;3.97;1.20;;;9.60;52.60;;;;;;4718575;29;114983;-84
2023/03/26 06:54:12;;;;;;;3.78;1.40;;;9.70;52.70;;;;;;4714013;29;115392;-84
2023/03/26 06:56:43;;;;;;;4.68;1.35;;;9.70;52.30;;;;;;4690562;29;115131;-84
2023/03/26 06:59:27;;;;;;;4.03;1.25;;;9.80;52.10;;;;;;4722884;29;115601;-85
2023/03/26 07:02:13;;;;;;;4.45;1.30;;;9.80;52.00;;;;;;4738547;29;114780;-85
2023/03/26 07:04:59;;;;;;;3.20;1.17;;;9.90;51.50;;;;;;4723003;29;114900;-85
2023/03/26 07:07:52;;;;;;;3.63;1.10;;;9.90;51.70;;;;;;4716021;29;114870;-84
2023/03/26 07:10:37;;;;;;;4.15;1.40;;;10.00;51.60;;;;;;4729049;29;115293;-84
2023/03/26 07:13:15;;;;;;;3.50;1.60;;;10.20;51.60;;;;;;4739923;29;114849;-86
2023/03/26 07:15:49;;;;;;;4.57;1.40;;;10.50;51.20;;;;;;4713474;29;115554;-85
2023/03/26 07:18:38;;;;;;;5.40;1.30;;;10.80;50.80;;;;;;4711306;29;114675;-84
2023/03/26 07:21:09;;;;;;;5.05;1.70;;;11.00;50.00;;;;;;4721582;29;115262;-85
2023/03/26 07:23:38;;;;;;;3.60;1.50;;;11.20;49.50;;;;;;4705994;29;114871;-85
2023/03/26 07:26:26;;;;;;;4.90;1.40;;;11.40;49.20;;;;;;4723875;29;114721;-83
2023/03/26 07:29:40;;;;;;;3.55;1.10;;;11.60;48.70;;;;;;4722528;29;114794;-85
2023/03/26 07:32:59;;;;;;;3.08;1.08;;;11.70;47.80;;;;;;4706742;29;116633;-86
2023/03/26 07:35:56;;;;;;;5.47;1.50;;;11.70;48.30;;;;;;4687520;29;117831;-85
2023/03/26 07:39:13;;;;;;;;;;;11.70;47.30;;;;;;4723810;29;114931;-85
2023/03/26 07:42:08;;;;;;;4.80;1.50;;;11.70;48.60;;;;;;4722374;29;114759;-84
2023/03/26 07:45:39;;;;;;;5.00;1.30;;;11.70;48.00;;;;;;4730205;29;115655;-84
2023/03/26 07:48:42;;;;;;;3.50;1.50;;;11.70;47.50;;;;;;4737854;29;114840;-84
2023/03/26 07:51:17;;;;;;;4.40;1.55;;;11.60;47.60;;;;;;4696704;29;114562;-83
2023/03/26 07:53:48;;;;;;;2.72;1.20;;;11.50;48.00;;;;;;4729506;29;114583;-84
2023/03/26 07:57:00;;;;;;;4.90;1.60;;;11.50;48.00;;;;;;4723623;29;115409;-83
2023/03/26 08:00:21;;;;;;;4.15;1.33;;;11.50;48.10;;;;;;4728091;29;115432;-84
2023/03/26 08:03:06;;;;;;;3.83;1.45;;;11.40;47.80;;;;;;4711386;29;114988;-83
2023/03/26 08:06:15;;;;;;;5.07;1.58;;;11.40;48.00;;;;;;4726599;29;114730;-84
2023/03/26 08:09:15;;;;;;;4.07;1.20;;;11.50;47.80;;;;;;4706094;29;115608;-83
2023/03/26 08:12:15;;;;;;;3.88;1.52;;;11.60;47.50;;;;;;4723276;29;114950;-83
2023/03/26 08:15:09;;;;;;;3.25;1.10;;;11.50;47.70;;;;;;4707729;29;114505;-84
2023/03/26 08:18:15;;;;;;;3.45;1.20;;;11.50;47.70;;;;;;4707036;29;114911;-84
2023/03/26 08:20:47;;;;;;;4.13;1.35;;;11.50;47.40;;;;;;4712736;29;115521;-84
2023/03/26 08:23:37;;;;;;;4.28;1.55;;;11.40;47.60;;;;;;4705867;29;115374;-83
2023/03/26 08:26:30;;;;;;;4.25;1.30;;;11.40;47.40;;;;;;4721754;29;114583;-85
2023/03/26 08:29:06;;;;;;;5.15;1.27;;;11.40;47.40;;;;;;4722976;29;114758;-83
2023/03/26 08:31:37;;;;;;;5.28;1.58;;;11.30;47.40;;;;;;4720659;29;115892;-84
2023/03/26 08:34:05;;;;;;;2.67;1.15;;;11.30;47.50;;;;;;4706714;29;117583;-83
2023/03/26 08:36:32;;;;;;;4.97;1.33;;;11.30;47.10;;;;;;4723109;29;114693;-84
2023/03/26 08:39:00;;;;;;;3.03;1.20;;;11.30;47.00;;;;;;4737148;29;114811;-84
2023/03/26 08:42:04;;;;;;;6.43;1.50;;;11.50;47.10;;;;;;4702462;29;115413;-82
2023/03/26 08:44:56;;;;;;;2.60;1.00;;;11.60;47.00;;;;;;4719943;29;116292;-84
2023/03/26 08:47:57;;;;;;;3.97;1.10;;;11.70;47.10;;;;;;4721205;29;114957;-86
2023/03/26 08:50:43;;;;;;;4.03;1.10;;;11.70;47.00;;;;;;4713140;29;115131;-85
2023/03/26 08:53:53;;;;;;;4.40;1.30;;;11.70;47.10;;;;;;4720702;29;116401;-84
2023/03/26 08:56:52;;;;;;;5.97;1.45;;;11.70;47.00;;;;;;4721156;29;115899;-84
2023/03/26 08:59:56;;;;;;;2.90;1.42;;;11.90;46.60;;;;;;4707454;29;114865;-84
2023/03/26 09:02:42;;;;;;;4.15;0.90;;;12.00;46.70;;;;;;4724937;29;114657;-85
2023/03/26 09:05:40;;;;;;;5.53;1.65;;;12.20;46.10;;;;;;4719030;29;115615;-86
2023/03/26 09:08:25;;;;;;;2.72;1.02;;;12.40;45.90;;;;;;4720251;29;114855;-84
2023/03/26 09:11:47;;;;;;;4.55;1.00;;;12.60;46.10;;;;;;4721638;29;114627;-85
2023/03/26 09:14:39;;;;;;;2.10;0.90;;;12.90;45.10;;;;;;4703388;29;114883;-85
2023/03/26 09:18:14;;;;;;;3.65;1.20;;;13.10;44.60;;;;;;4722567;29;120034;-85
2023/03/26 09:21:05;;;;;;;4.75;1.83;;;13.30;43.80;;;;;;4654107;30;114817;-85
2023/03/26 09:24:45;;;;;;;2.75;0.90;;;13.40;43.70;;;;;;4655609;30;114554;-85
2023/03/26 09:27:55;;;;;;;2.42;1.02;;;13.60;43.40;;;;;;4653066;30;114738;-86
2023/03/26 09:31:00;;;;;;;5.35;1.20;;;13.50;42.90;;;;;;4693267;29;115661;-86
2023/03/26 09:33:59;;;;;;;2.67;1.00;;;13.30;43.10;;;;;;4709490;29;118491;-85
2023/03/26 09:36:58;;;;;;;5.13;1.60;;;13.10;43.00;;;;;;4723887;29;114947;-86
2023/03/26 09:39:56;;;;;;;3.85;1.50;;;13.00;43.40;;;;;;4717652;29;114736;-85
2023/03/26 09:42:35;;;;;;;4.65;1.30;;;13.00;43.30;;;;;;4706601;29;115284;-84
2023/03/26 09:45:18;;;;;;;4.43;1.08;;;12.80;43.50;;;;;;4731910;29;117208;-84
2023/03/26 09:48:17;;;;;;;4.70;1.45;;;12.80;43.20;;;;;;4721501;29;114654;-87
2023/03/26 09:51:17;;;;;;;3.80;1.05;;;12.90;43.40;;;;;;4727680;29;115287;-83
2023/03/26 09:54:38;;;;;;;2.97;1.13;;;13.10;43.50;;;;;;4715444;29;115298;-84
2023/03/26 09:57:23;;;;;;;5.53;1.55;;;13.20;43.30;;;;;;4693841;29;118874;-86
2023/03/26 10:00:31;;;;;;;3.03;0.95;;;13.30;43.40;;;;;;4724471;29;114586;-84
2023/03/26 10:03:37;;;;;;;4.28;1.02;;;13.60;43.30;;;;;;4723669;29;119208;-84
2023/03/26 10:06:52;;;;;;;4.45;1.05;;;13.80;42.30;;;;;;4722516;29;116432;-84
2023/03/26 10:10:00;;;;;;;3.90;1.10;;;13.90;42.00;;;;;;4737297;29;115439;-85
2023/03/26 10:12:37;;;;;;;2.50;1.05;;;13.90;41.60;;;;;;4738056;29;114921;-84
2023/03/26 10:15:23;;;;;;;4.85;2.15;;;14.20;41.40;;;;;;4715450;29;114786;-84
2023/03/26 10:18:07;;;;;;;4.07;1.20;;;14.30;41.60;;;;;;4719870;29;117433;-85
2023/03/26 10:21:19;;;;;;;3.90;1.10;;;14.30;41.10;;;;;;4709824;29;115084;-89
2023/03/26 10:24:04;;;;;;;4.68;1.70;;;14.50;41.00;;;;;;4705385;29;114982;-83
2023/03/26 10:27:04;;;;;;;3.20;1.08;;;14.50;40.70;;;;;;4719637;29;116476;-85
2023/03/26 10:29:45;;;;;;;4.78;1.60;;;14.60;39.70;;;;;;4737079;29;115359;-85
2023/03/26 10:32:43;;;;;;;4.18;1.40;;;14.60;39.80;;;;;;4738118;29;114886;-84
2023/03/26 10:35:52;;;;;;;4.43;1.30;;;14.50;39.90;;;;;;4738694;29;114551;-84
2023/03/26 10:38:57;;;;;;;4.35;1.10;;;14.60;40.20;;;;;;4717057;29;115921;-85
2023/03/26 10:42:05;;;;;;;4.65;1.42;;;14.60;40.40;;;;;;4689643;29;119379;-85
2023/03/26 10:45:09;;;;;;;4.30;1.70;;;14.50;39.80;;;;;;4726728;29;116027;-85
2023/03/26 10:48:07;;;;;;;3.47;1.15;;;14.30;39.60;;;;;;4737435;29;115051;-85
2023/03/26 10:50:51;;;;;;;3.30;1.38;;;14.20;40.40;;;;;;4737579;29;114651;-85
2023/03/26 10:53:33;;;;;;;2.85;1.10;;;14.10;40.20;;;;;;4721515;29;116861;-85
2023/03/26 10:56:41;;;;;;;2.45;1.08;;;13.80;40.50;;;;;;4737443;29;117159;-85
2023/03/26 10:59:11;;;;;;;3.05;1.00;;;13.70;40.80;;;;;;4708760;29;114719;-85
2023/03/26 11:02:12;;;;;;;5.05;1.20;;;13.50;41.00;;;;;;4737380;29;116889;-85
2023/03/26 11:05:27;;;;;;;2.75;1.08;;;13.30;41.30;;;;;;4735921;29;115389;-85
2023/03/26 11:08:20;;;;;;;4.10;1.13;;;13.20;41.50;;;;;;4721117;29;117840;-85
2023/03/26 11:11:28;;;;;;;5.57;1.10;;;13.10;41.50;;;;;;4721836;29;114619;-85
2023/03/26 11:14:46;;;;;;;2.72;1.00;;;13.20;42.30;;;;;;4737464;29;114859;-84
2023/03/26 11:17:45;;;;;;;3.63;1.20;;;13.40;42.00;;;;;;4735714;29;115113;-84
2023/03/26 11:20:50;;;;;;;2.90;1.23;;;13.50;41.60;;;;;;4727138;29;114835;-85
2023/03/26 11:23:39;;;;;;;2.60;1.10;;;13.50;41.60;;;;;;4706891;29;114739;-85
2023/03/26 11:26:20;;;;;;;2.78;1.10;;;13.70;41.00;;;;;;4675210;29;114997;-85
2023/03/26 11:28:57;;;;;;;5.47;1.73;;;13.70;40.80;;;;;;4703693;29;115802;-83
2023/03/26 11:32:12;;;;;;;4.97;1.42;;;13.70;41.00;;;;;;4718432;29;114764;-85
2023/03/26 11:35:05;;;;;;;3.97;1.45;;;13.70;41.00;;;;;;4691424;29;114565;-83
2023/03/26 11:37:39;;;;;;;6.20;2.20;;;13.60;41.10;;;;;;4707160;29;114874;-85
2023/03/26 11:40:15;;;;;;;5.28;1.17;;;13.60;41.20;;;;;;4716954;29;115358;-85
2023/03/26 11:42:42;;;;;;;5.70;1.30;;;13.70;41.10;;;;;;4703149;29;114688;-89
2023/03/26 11:45:17;;;;;;;3.42;1.30;;;13.80;40.80;;;;;;4702848;29;114652;-85
2023/03/26 11:47:49;;;;;;;3.80;1.10;;;14.00;40.80;;;;;;4708295;29;114950;-85
2023/03/26 11:50:41;;;;;;;3.60;1.25;;;14.20;41.00;;;;;;4707701;29;114510;-85
2023/03/26 11:53:16;;;;;;;3.63;1.30;;;14.50;40.60;;;;;;4705906;29;115498;-85
2023/03/26 11:56:13;;;;;;;3.67;1.20;;;14.70;39.70;;;;;;4692365;29;114847;-85
2023/03/26 11:59:08;;;;;;;2.72;0.93;;;14.80;38.80;;;;;;4697002;29;114742;-85
2023/03/26 12:01:51;;;;;;;4.97;1.15;;;14.80;38.50;;;;;;4694076;29;115264;-86
2023/03/26 12:04:34;;;;;;;1.92;0.90;;;14.80;38.50;;;;;;4692217;29;114828;-85
2023/03/26 12:07:33;;;;;;;4.38;1.38;;;14.80;38.50;;;;;;4721198;29;115112;-84
2023/03/26 12:10:04;;;;;;;3.00;1.17;;;14.90;38.80;;;;;;4709188;29;114729;-85
2023/03/26 12:12:45;;;;;;;2.90;1.00;;;14.80;38.40;;;;;;4736697;29;115622;-85
2023/03/26 12:15:17;;;;;;;3.63;1.50;;;14.80;38.60;;;;;;4723595;29;115362;-85
2023/03/26 12:17:52;;;;;;;5.55;1.73;;;14.80;38.50;;;;;;4709776;29;114661;-86
2023/03/26 12:20:31;;;;;;;2.75;1.33;;;14.80;38.30;;;;;;4710453;29;119907;-85
2023/03/26 12:23:00;;;;;;;5.88;1.35;;;14.70;38.50;;;;;;4740164;29;115737;-84
2023/03/26 12:25:37;;;;;;;7.15;2.10;;;14.60;38.80;;;;;;4709344;29;115993;-85
2023/03/26 12:28:15;;;;;;;8.65;2.22;;;14.60;38.90;;;;;;4739457;29;114971;-84
2023/03/26 12:31:03;;;;;;;4.47;1.70;;;14.70;38.80;;;;;;4724702;29;114617;-85
2023/03/26 12:33:33;;;;;;;3.33;1.10;;;14.70;38.70;;;;;;4693687;29;119848;-84
2023/03/26 12:36:28;;;;;;;3.60;1.30;;;14.70;38.90;;;;;;4738211;29;116282;-85
2023/03/26 12:38:55;;;;;;;4.57;1.38;;;14.70;39.00;;;;;;4724036;29;120325;-84
2023/03/26 12:41:55;;;;;;;3.08;1.17;;;14.70;39.00;;;;;;4727634;29;114711;-84
2023/03/26 12:44:46;;;;;;;2.47;0.93;;;14.70;38.70;;;;;;4723182;29;115443;-85
2023/03/26 12:47:30;;;;;;;4.57;1.25;;;14.70;38.10;;;;;;4710408;29;114770;-84
2023/03/26 12:50:17;;;;;;;2.22;0.90;;;14.60;38.10;;;;;;4727383;29;114644;-84
2023/03/26 12:53:25;;;;;;;2.20;0.80;;;14.50;37.30;;;;;;4709532;29;114634;-85
2023/03/26 12:56:39;;;;;;;3.25;1.63;;;14.40;37.40;;;;;;4723113;29;115369;-88
2023/03/26 12:59:49;;;;;;;4.22;1.65;;;14.30;37.70;;;;;;4708436;29;118253;-83
2023/03/26 13:02:44;;;;;;;2.92;1.00;;;14.20;38.00;;;;;;4723977;29;114562;-86
2023/03/26 13:05:52;;;;;;;2.58;1.10;;;14.20;38.00;;;;;;4722677;29;114829;-85
2023/03/26 13:08:34;;;;;;;5.05;1.08;;;14.20;38.00;;;;;;4738410;29;116375;-85
2023/03/26 13:11:36;;;;;;;3.35;1.20;;;14.20;38.10;;;;;;4738912;29;114812;-83
2023/03/26 13:14:09;;;;;;;2.20;0.90;;;14.20;37.70;;;;;;4738943;29;114654;-84
2023/03/26 13:17:02;;;;;;;4.85;1.30;;;14.20;38.00;;;;;;4724135;29;114964;-84
2023/03/26 13:19:45;;;;;;;3.42;1.00;;;14.20;38.10;;;;;;4709237;29;118419;-84
2023/03/26 13:22:23;;;;;;;3.53;1.20;;;14.20;38.20;;;;;;4710566;29;117130;-84
2023/03/26 13:24:59;;;;;;;2.78;0.95;;;14.20;38.40;;;;;;4691607;29;114729;-84
2023/03/26 13:27:49;;;;;;;2.40;1.02;;;14.30;38.30;;;;;;4721495;29;118542;-85
2023/03/26 13:30:51;;;;;;;2.90;1.05;;;14.40;38.10;;;;;;4720091;29;115439;-84
2023/03/26 13:33:40;;;;;;;2.80;1.17;;;14.40;37.40;;;;;;4707966;29;114929;-84
2023/03/26 13:36:50;;;;;;;4.57;1.50;;;14.30;37.50;;;;;;4721964;29;114682;-83
2023/03/26 13:40:11;;;;;;;5.32;1.40;;;14.30;37.60;;;;;;4686215;29;117487;-85
2023/03/26 13:43:13;;;;;;;2.53;0.90;;;14.20;37.40;;;;;;4720702;29;116110;-85
2023/03/26 13:46:11;;;;;;;4.05;1.15;;;14.20;37.20;;;;;;4708821;29;117673;-84
2023/03/26 13:49:03;;;;;;;3.63;1.55;;;14.10;37.00;;;;;;4709832;29;114653;-84
2023/03/26 13:51:47;;;;;;;5.13;0.95;;;14.20;37.30;;;;;;4711518;29;115057;-85
2023/03/26 13:54:35;;;;;;;3.17;1.20;;;14.20;37.40;;;;;;4709057;29;114470;-84
2023/03/26 13:57:20;;;;;;;3.08;0.98;;;14.10;37.60;;;;;;4724045;29;114837;-84
2023/03/26 13:59:52;;;;;;;;;;;14.10;37.10;;;;;;4736563;29;114553;-84
2023/03/26 14:02:36;;;;;;;3.70;0.90;;;13.90;37.90;;;;;;4723859;29;115651;-84
2023/03/26 14:05:39;;;;;;;3.60;1.00;;;13.80;37.60;;;;;;4707971;29;116804;-84
2023/03/26 14:08:46;;;;;;;3.30;1.30;;;13.80;37.90;;;;;;4692765;29;116281;-85
2023/03/26 14:11:37;;;;;;;2.70;1.10;;;13.90;38.10;;;;;;4708613;29;114610;-85